Milwaukee, Wisconsin
Current Conditions -  °F | °C
As of 7:52 PM on Monday 22 Dec 2014 (Local Time) from KMKE Reporting Station
Light Rain Light Rain  
Wind Chill: -1°   Ceiling: 300
Heat Index:   Visibility: 2mi
Dew Point:   Wind: 16mph
Humidity: 93%   Direction: 130°SE
Pressure: 29.69"   Gusts: NA
Location:  43.04°N, 87.91°W
Report Text: KMKE 230152Z 13014KT 2SM -RA BR OVC003 04/03 A2969 RMK AO2 SFC VIS 2 1/2 SLP060 P0004 T00390028
Loading
Personal Weather Stations






























Interactive Weather Map New forecast layout! Learn more

10-Day Weather Forecast

Advertisements
Track Severe Weather on mobile